Time;durP1;ratioP1;P1;durP2;ratioP2;P2;SDS_P1;SDS_P2;PMS_P1;PMS_P2;Temp;Humidity;BMP_temperature;BMP_pressure;BME280_temperature;BME280_humidity;BME280_pressure;Samples;Min_cycle;Max_cycle;Signal;HPM_P1;HPM_P2
2023/09/10 00:01:40;;;;;;;26.70;20.00;;;;;;;;;;4997706;28;20403;-59
2023/09/10 00:04:34;;;;;;;25.20;19.40;;;;;;;;;;4998667;28;20060;-59
2023/09/10 00:07:21;;;;;;;25.45;19.52;;;;;;;;;;4999242;28;20061;-59
2023/09/10 00:10:15;;;;;;;24.50;20.35;;;;;;;;;;4999287;28;20462;-59
2023/09/10 00:13:03;;;;;;;31.38;22.73;;;;;;;;;;5000451;28;20076;-59
2023/09/10 00:15:56;;;;;;;27.13;22.08;;;;;;;;;;4999288;28;20050;-60
2023/09/10 00:18:43;;;;;;;24.77;20.25;;;;;;;;;;5000959;28;20045;-59
2023/09/10 00:21:37;;;;;;;26.00;21.02;;;;;;;;;;4995032;28;21039;-59
2023/09/10 00:24:24;;;;;;;27.13;21.67;;;;;;;;;;4998512;28;20054;-60
2023/09/10 00:27:18;;;;;;;26.00;21.77;;;;;;;;;;5000874;28;20220;-59
2023/09/10 00:30:05;;;;;;;29.98;23.33;;;;;;;;;;4999626;28;20417;-60
2023/09/10 00:33:00;;;;;;;28.13;22.45;;;;;;;;;;5000726;28;20046;-59
2023/09/10 00:35:47;;;;;;;27.40;22.70;;;;;;;;;;5001786;28;20105;-59
2023/09/10 00:38:21;;;;;;;30.98;23.20;;;;;;;;;;4998332;28;20087;-62
2023/09/10 00:40:48;;;;;;;29.02;23.13;;;;;;;;;;4998320;28;20085;-59
2023/09/10 00:43:42;;;;;;;27.35;23.17;;;;;;;;;;4997806;28;20050;-60
2023/09/10 00:46:36;;;;;;;30.85;24.10;;;;;;;;;;4998423;28;20045;-61
2023/09/10 00:49:29;;;;;;;30.50;23.23;;;;;;;;;;5000821;28;20690;-61
2023/09/10 00:52:25;;;;;;;31.73;25.30;;;;;;;;;;4998096;28;20066;-61
2023/09/10 00:55:19;;;;;;;29.20;23.77;;;;;;;;;;5000806;28;20068;-57
2023/09/10 00:58:07;;;;;;;31.67;24.97;;;;;;;;;;5004743;28;20053;-57
2023/09/10 01:01:01;;;;;;;30.35;24.38;;;;;;;;;;5003220;28;20053;-57
2023/09/10 01:03:48;;;;;;;34.70;25.88;;;;;;;;;;5003017;28;20046;-58
2023/09/10 01:06:42;;;;;;;30.75;26.23;;;;;;;;;;4997150;28;20057;-58
2023/09/10 01:09:29;;;;;;;31.90;26.35;;;;;;;;;;5003170;28;20054;-58
2023/09/10 01:12:41;;;;;;;36.72;26.45;;;;;;;;;;5002876;28;20581;-57
2023/09/10 01:15:42;;;;;;;37.50;28.60;;;;;;;;;;5005223;28;20191;-51
2023/09/10 01:18:43;;;;;;;34.75;26.42;;;;;;;;;;5003458;28;20054;-50
2023/09/10 01:21:41;;;;;;;38.65;29.40;;;;;;;;;;5004172;28;20104;-50
2023/09/10 01:24:50;;;;;;;39.53;29.33;;;;;;;;;;4990894;28;20058;-48
2023/09/10 01:27:38;;;;;;;40.63;30.90;;;;;;;;;;4997932;28;20073;-59
2023/09/10 01:30:32;;;;;;;40.10;29.48;;;;;;;;;;5002642;28;20062;-60
2023/09/10 01:33:26;;;;;;;38.67;30.98;;;;;;;;;;5000799;28;20050;-59
2023/09/10 01:36:22;;;;;;;42.55;31.95;;;;;;;;;;5000343;28;20054;-60
2023/09/10 01:39:19;;;;;;;44.05;32.85;;;;;;;;;;4985554;28;20566;-59
2023/09/10 01:42:13;;;;;;;41.47;32.55;;;;;;;;;;4996396;28;20053;-61
2023/09/10 01:45:07;;;;;;;43.83;34.40;;;;;;;;;;5005577;28;20054;-61
2023/09/10 01:48:02;;;;;;;45.55;35.55;;;;;;;;;;5004501;28;20054;-61
2023/09/10 01:51:02;;;;;;;46.22;35.63;;;;;;;;;;5002260;28;20127;-61
2023/09/10 01:53:50;;;;;;;44.90;36.25;;;;;;;;;;5004916;28;20062;-59
2023/09/10 01:56:44;;;;;;;50.38;38.35;;;;;;;;;;5002690;28;20045;-62
2023/09/10 01:59:31;;;;;;;49.22;39.08;;;;;;;;;;5001295;28;20132;-61
2023/09/10 02:02:25;;;;;;;65.97;41.10;;;;;;;;;;4999248;28;20058;-61
2023/09/10 02:05:12;;;;;;;62.50;42.03;;;;;;;;;;5002536;28;20061;-61
2023/09/10 02:08:06;;;;;;;55.20;42.08;;;;;;;;;;5003711;28;20054;-61
2023/09/10 02:10:53;;;;;;;56.78;41.95;;;;;;;;;;5000668;28;20132;-59
2023/09/10 02:13:47;;;;;;;64.22;44.63;;;;;;;;;;4998502;28;20057;-58
2023/09/10 02:16:34;;;;;;;59.28;45.13;;;;;;;;;;5001480;28;20072;-59
2023/09/10 02:19:28;;;;;;;63.40;44.97;;;;;;;;;;4994298;28;20087;-58
2023/09/10 02:22:15;;;;;;;60.60;48.28;;;;;;;;;;5003950;28;20042;-59
2023/09/10 02:25:09;;;;;;;57.42;41.70;;;;;;;;;;5003515;28;20173;-59
2023/09/10 02:27:58;;;;;;;64.28;46.40;;;;;;;;;;5001172;28;20116;-59
2023/09/10 02:30:52;;;;;;;70.63;50.03;;;;;;;;;;5000481;28;20050;-59
2023/09/10 02:33:39;;;;;;;54.88;44.85;;;;;;;;;;4992875;28;20109;-59
2023/09/10 02:36:13;;;;;;;76.60;51.95;;;;;;;;;;5004380;28;20076;-59
2023/09/10 02:38:40;;;;;;;66.38;47.47;;;;;;;;;;5003730;28;20057;-65
2023/09/10 02:41:34;;;;;;;65.60;47.40;;;;;;;;;;4994806;28;20127;-66
2023/09/10 02:44:21;;;;;;;75.72;54.22;;;;;;;;;;5000033;28;20054;-65
2023/09/10 02:47:15;;;;;;;75.20;53.75;;;;;;;;;;4999317;28;20132;-66
2023/09/10 02:50:15;;;;;;;76.95;50.70;;;;;;;;;;4999590;28;20046;-58
2023/09/10 02:53:10;;;;;;;69.20;48.55;;;;;;;;;;5000080;28;20490;-62
2023/09/10 02:56:04;;;;;;;62.75;46.80;;;;;;;;;;5001151;28;20042;-62
2023/09/10 02:58:51;;;;;;;71.25;53.08;;;;;;;;;;5003441;28;20638;-61
2023/09/10 03:01:45;;;;;;;73.80;52.50;;;;;;;;;;4998294;28;20058;-62
2023/09/10 03:04:32;;;;;;;77.68;55.80;;;;;;;;;;4989309;28;20050;-62
2023/09/10 03:07:26;;;;;;;73.63;49.50;;;;;;;;;;4998012;28;20077;-66
2023/09/10 03:10:13;;;;;;;71.57;50.80;;;;;;;;;;5002767;28;20054;-57
2023/09/10 03:13:07;;;;;;;80.32;56.90;;;;;;;;;;5004958;28;20046;-58
2023/09/10 03:15:54;;;;;;;64.70;46.72;;;;;;;;;;4999258;28;20773;-58
2023/09/10 03:18:48;;;;;;;83.10;58.13;;;;;;;;;;5001127;28;20050;-57
2023/09/10 03:21:36;;;;;;;78.18;56.55;;;;;;;;;;5001322;28;20513;-57
2023/09/10 03:24:30;;;;;;;74.18;54.30;;;;;;;;;;5002623;28;20492;-57
2023/09/10 03:27:17;;;;;;;83.75;57.03;;;;;;;;;;5001701;28;20522;-59
2023/09/10 03:30:11;;;;;;;92.28;59.10;;;;;;;;;;4999990;28;20064;-60
2023/09/10 03:32:58;;;;;;;74.10;52.78;;;;;;;;;;4997801;28;20881;-59
2023/09/10 03:35:52;;;;;;;93.20;62.63;;;;;;;;;;4999389;28;20141;-65
2023/09/10 03:38:39;;;;;;;100.13;64.97;;;;;;;;;;4998780;28;20058;-46
2023/09/10 03:41:33;;;;;;;122.82;72.53;;;;;;;;;;4996264;28;20083;-48
2023/09/10 03:44:20;;;;;;;94.30;61.83;;;;;;;;;;5000003;28;20428;-48
2023/09/10 03:47:14;;;;;;;85.07;59.03;;;;;;;;;;4997897;28;20429;-48
2023/09/10 03:50:08;;;;;;;82.20;53.25;;;;;;;;;;4997404;28;20248;-53
2023/09/10 03:53:02;;;;;;;112.30;66.07;;;;;;;;;;4999027;28;20049;-50
2023/09/10 03:55:49;;;;;;;129.85;76.32;;;;;;;;;;5000157;28;20054;-57
2023/09/10 03:58:43;;;;;;;143.02;81.05;;;;;;;;;;4999917;28;20045;-57
2023/09/10 04:01:30;;;;;;;131.52;71.35;;;;;;;;;;4998483;28;20049;-57
2023/09/10 04:04:24;;;;;;;146.13;78.57;;;;;;;;;;4992527;28;20433;-60
2023/09/10 04:07:11;;;;;;;149.95;81.70;;;;;;;;;;4997722;28;20125;-66
2023/09/10 04:10:06;;;;;;;161.02;83.88;;;;;;;;;;5001027;28;20054;-65
2023/09/10 04:12:53;;;;;;;178.35;85.85;;;;;;;;;;4998882;28;20136;-65
2023/09/10 04:15:47;;;;;;;158.80;79.43;;;;;;;;;;4998084;28;20064;-65
2023/09/10 04:18:34;;;;;;;173.05;83.85;;;;;;;;;;5000487;28;20058;-66
2023/09/10 04:21:13;;;;;;;129.68;74.10;;;;;;;;;;5000311;28;20060;-65
2023/09/10 04:24:00;;;;;;;140.23;76.15;;;;;;;;;;5002212;28;20053;-59
2023/09/10 04:26:54;;;;;;;152.43;80.18;;;;;;;;;;4998727;28;20053;-50
2023/09/10 04:29:48;;;;;;;152.20;78.43;;;;;;;;;;5003736;28;20115;-49
2023/09/10 04:32:42;;;;;;;185.60;83.47;;;;;;;;;;5001575;28;20868;-46
2023/09/10 04:35:29;;;;;;;105.43;59.60;;;;;;;;;;5003222;28;20057;-50
2023/09/10 04:38:23;;;;;;;141.05;70.43;;;;;;;;;;5001581;28;20112;-53
2023/09/10 04:41:10;;;;;;;275.83;91.63;;;;;;;;;;5002121;28;20148;-49
2023/09/10 04:44:04;;;;;;;406.98;110.63;;;;;;;;;;4999953;28;20063;-61
2023/09/10 04:46:54;;;;;;;266.98;92.55;;;;;;;;;;5005199;28;20108;-62
2023/09/10 04:49:51;;;;;;;311.92;95.50;;;;;;;;;;5005303;28;20068;-62
2023/09/10 04:52:46;;;;;;;462.55;116.82;;;;;;;;;;5003424;28;20053;-61
2023/09/10 04:55:40;;;;;;;315.27;98.63;;;;;;;;;;5001967;28;20577;-62
2023/09/10 04:58:27;;;;;;;538.25;126.82;;;;;;;;;;5000680;28;20136;-62
2023/09/10 05:01:21;;;;;;;397.33;111.25;;;;;;;;;;5002068;28;20093;-62
2023/09/10 05:04:08;;;;;;;445.30;122.55;;;;;;;;;;4997288;28;20152;-59
2023/09/10 05:07:02;;;;;;;630.33;134.52;;;;;;;;;;4995318;28;20053;-60
2023/09/10 05:09:56;;;;;;;446.27;116.30;;;;;;;;;;4996359;28;20050;-60
2023/09/10 05:12:43;;;;;;;404.45;104.03;;;;;;;;;;5006018;28;20452;-59
2023/09/10 05:15:37;;;;;;;627.65;133.57;;;;;;;;;;5005383;28;20054;-59
2023/09/10 05:18:31;;;;;;;510.23;116.70;;;;;;;;;;5002918;28;20049;-59
2023/09/10 05:21:18;;;;;;;466.02;120.38;;;;;;;;;;5003054;28;20076;-59
2023/09/10 05:24:12;;;;;;;541.38;132.23;;;;;;;;;;4995439;28;20108;-59
2023/09/10 05:26:59;;;;;;;510.50;122.20;;;;;;;;;;4991582;28;20060;-58
2023/09/10 05:29:53;;;;;;;369.48;107.78;;;;;;;;;;5003836;28;20073;-59
2023/09/10 05:32:40;;;;;;;458.77;120.47;;;;;;;;;;5001519;28;20073;-59
2023/09/10 05:35:34;;;;;;;538.20;127.93;;;;;;;;;;4999437;28;20060;-60
2023/09/10 05:38:21;;;;;;;537.45;133.18;;;;;;;;;;4999690;28;20109;-47
2023/09/10 05:41:15;;;;;;;551.33;129.75;;;;;;;;;;5000446;28;20057;-57
2023/09/10 05:44:03;;;;;;;528.35;125.68;;;;;;;;;;5004616;28;20050;-57
2023/09/10 05:46:56;;;;;;;512.78;121.70;;;;;;;;;;5000915;28;20057;-58
2023/09/10 05:49:49;;;;;;;374.15;106.07;;;;;;;;;;4995398;28;20492;-58
2023/09/10 05:52:53;;;;;;;317.17;91.07;;;;;;;;;;4984184;28;20054;-58
2023/09/10 05:55:44;;;;;;;429.10;103.57;;;;;;;;;;4983863;28;20082;-65
2023/09/10 05:58:31;;;;;;;438.08;107.05;;;;;;;;;;4985615;28;20050;-50
2023/09/10 06:01:25;;;;;;;401.08;101.22;;;;;;;;;;4985781;28;20062;-50
2023/09/10 06:04:12;;;;;;;409.58;106.80;;;;;;;;;;4983112;28;20054;-47
2023/09/10 06:07:06;;;;;;;295.00;86.25;;;;;;;;;;4982894;28;20054;-49
2023/09/10 06:09:53;;;;;;;230.45;72.13;;;;;;;;;;4986993;28;20061;-51
2023/09/10 06:12:47;;;;;;;236.63;73.68;;;;;;;;;;4986745;28;20050;-62
2023/09/10 06:15:34;;;;;;;210.18;69.70;;;;;;;;;;4982366;28;20054;-51
2023/09/10 06:18:28;;;;;;;183.98;66.13;;;;;;;;;;4986063;28;20046;-50
2023/09/10 06:21:22;;;;;;;161.98;57.83;;;;;;;;;;4981390;28;20054;-52
2023/09/10 06:24:16;;;;;;;157.75;59.45;;;;;;;;;;4983752;28;20518;-50
2023/09/10 06:27:10;;;;;;;142.85;55.47;;;;;;;;;;4983022;28;20055;-49
2023/09/10 06:29:45;;;;;;;161.40;61.30;;;;;;;;;;4980778;28;20462;-47
2023/09/10 06:32:12;;;;;;;138.13;55.90;;;;;;;;;;4981636;28;20108;-59
2023/09/10 06:35:06;;;;;;;128.90;52.78;;;;;;;;;;4984143;28;20054;-59
2023/09/10 06:37:53;;;;;;;109.00;51.70;;;;;;;;;;4988590;28;20054;-60
2023/09/10 06:40:48;;;;;;;146.55;55.63;;;;;;;;;;4983087;28;20532;-60
2023/09/10 06:43:34;;;;;;;127.55;53.38;;;;;;;;;;4985013;28;20465;-60
2023/09/10 06:46:28;;;;;;;93.68;41.47;;;;;;;;;;4983892;28;20060;-60
2023/09/10 06:49:28;;;;;;;98.90;44.83;;;;;;;;;;4984921;28;20422;-58
2023/09/10 06:52:22;;;;;;;86.78;41.20;;;;;;;;;;4998954;28;20053;-64
2023/09/10 06:55:16;;;;;;;90.55;40.22;;;;;;;;;;5005350;28;20061;-59
2023/09/10 06:58:03;;;;;;;97.10;42.83;;;;;;;;;;5003684;28;20065;-59
2023/09/10 07:00:57;;;;;;;84.55;39.42;;;;;;;;;;5006851;28;20053;-59
2023/09/10 07:03:45;;;;;;;93.60;41.05;;;;;;;;;;5001937;28;20049;-59
2023/09/10 07:06:38;;;;;;;88.03;39.10;;;;;;;;;;5001863;28;20101;-59
2023/09/10 07:09:32;;;;;;;90.10;40.70;;;;;;;;;;5003479;28;20052;-60
2023/09/10 07:12:19;;;;;;;76.95;37.67;;;;;;;;;;5003248;28;20112;-59
2023/09/10 07:15:13;;;;;;;83.05;39.30;;;;;;;;;;5002639;28;20553;-60
2023/09/10 07:18:07;;;;;;;86.30;40.40;;;;;;;;;;5000096;28;20054;-60
2023/09/10 07:21:01;;;;;;;79.38;37.58;;;;;;;;;;5000551;28;20506;-60
2023/09/10 07:23:55;;;;;;;72.47;33.70;;;;;;;;;;5001883;28;20053;-60
2023/09/10 07:26:43;;;;;;;56.20;30.90;;;;;;;;;;5004369;28;20076;-64
2023/09/10 07:29:36;;;;;;;60.75;28.30;;;;;;;;;;5000689;28;20061;-46
2023/09/10 07:32:23;;;;;;;65.93;28.50;;;;;;;;;;5000997;28;20085;-49
2023/09/10 07:35:17;;;;;;;63.53;28.70;;;;;;;;;;4999752;28;20105;-50
2023/09/10 07:38:04;;;;;;;69.85;30.38;;;;;;;;;;4994417;28;20478;-49
2023/09/10 07:40:58;;;;;;;71.70;30.52;;;;;;;;;;4997026;28;20057;-50
2023/09/10 07:43:45;;;;;;;76.47;31.92;;;;;;;;;;5000869;28;20561;-50
2023/09/10 07:46:39;;;;;;;67.78;31.40;;;;;;;;;;5003032;28;20546;-59
2023/09/10 07:49:28;;;;;;;69.55;30.75;;;;;;;;;;4994299;28;20146;-64
2023/09/10 07:52:27;;;;;;;81.03;32.20;;;;;;;;;;5000276;28;20050;-65
2023/09/10 07:55:14;;;;;;;90.75;35.90;;;;;;;;;;5002786;28;20079;-64
2023/09/10 07:58:08;;;;;;;88.72;34.95;;;;;;;;;;5001730;28;20054;-63
2023/09/10 08:00:56;;;;;;;108.88;37.42;;;;;;;;;;5002355;28;20041;-64
2023/09/10 08:03:50;;;;;;;111.05;37.83;;;;;;;;;;4998302;28;20046;-57
2023/09/10 08:06:44;;;;;;;117.25;39.80;;;;;;;;;;5001168;28;20104;-47
2023/09/10 08:09:31;;;;;;;119.70;42.17;;;;;;;;;;4997417;28;20077;-49
2023/09/10 08:12:25;;;;;;;138.25;44.75;;;;;;;;;;4998222;28;20084;-47
2023/09/10 08:15:12;;;;;;;143.85;45.00;;;;;;;;;;4998719;28;20551;-48
2023/09/10 08:18:10;;;;;;;137.85;47.65;;;;;;;;;;4999042;28;20050;-48
2023/09/10 08:20:56;;;;;;;141.55;46.47;;;;;;;;;;5000470;28;20474;-62
2023/09/10 08:23:50;;;;;;;124.05;43.45;;;;;;;;;;4996506;28;20053;-61
2023/09/10 08:26:37;;;;;;;118.75;41.20;;;;;;;;;;4999127;28;20054;-57
2023/09/10 08:29:31;;;;;;;103.15;37.83;;;;;;;;;;4999263;28;20064;-59
2023/09/10 08:32:18;;;;;;;112.60;40.22;;;;;;;;;;4996785;28;20049;-58
2023/09/10 08:35:12;;;;;;;120.60;40.60;;;;;;;;;;5003989;28;20053;-57
2023/09/10 08:37:59;;;;;;;119.68;39.75;;;;;;;;;;4998652;28;20049;-57
2023/09/10 08:40:58;;;;;;;101.80;35.60;;;;;;;;;;5001696;28;20050;-60
2023/09/10 08:43:49;;;;;;;90.60;33.67;;;;;;;;;;4998559;28;20144;-61
2023/09/10 08:46:43;;;;;;;77.20;31.13;;;;;;;;;;5001199;28;20264;-60
2023/09/10 08:49:53;;;;;;;57.65;27.00;;;;;;;;;;4997295;28;20725;-59
2023/09/10 08:52:48;;;;;;;64.10;26.55;;;;;;;;;;4997803;28;20062;-61
2023/09/10 08:55:44;;;;;;;57.70;26.17;;;;;;;;;;5001970;28;20583;-60
2023/09/10 08:58:33;;;;;;;49.33;23.13;;;;;;;;;;4997850;28;20050;-59
2023/09/10 09:01:27;;;;;;;58.42;25.25;;;;;;;;;;4117219;28;10000216;-61
2023/09/10 09:04:15;;;;;;;55.42;23.90;;;;;;;;;;4949954;28;20499;-60
2023/09/10 09:07:11;;;;;;;56.30;24.08;;;;;;;;;;4951904;28;20055;-61
2023/09/10 09:09:42;;;;;;;53.50;24.85;;;;;;;;;;4956651;28;20071;-60
2023/09/10 09:12:38;;;;;;;49.90;24.58;;;;;;;;;;4957655;28;20055;-61
2023/09/10 09:15:25;;;;;;;49.28;24.60;;;;;;;;;;4957664;28;20054;-61
2023/09/10 09:18:19;;;;;;;52.00;25.27;;;;;;;;;;4957693;28;20063;-57
2023/09/10 09:20:50;;;;;;;53.95;26.45;;;;;;;;;;4960842;28;20091;-48
2023/09/10 09:23:32;;;;;;;63.30;29.25;;;;;;;;;;4960097;28;20486;-51
2023/09/10 09:26:19;;;;;;;56.97;26.40;;;;;;;;;;4966675;28;20059;-53
2023/09/10 09:29:13;;;;;;;55.92;25.02;;;;;;;;;;4964603;28;20062;-45
2023/09/10 09:32:00;;;;;;;49.53;24.10;;;;;;;;;;4965489;28;20055;-46
2023/09/10 09:34:55;;;;;;;59.85;26.42;;;;;;;;;;4963940;28;20185;-58
2023/09/10 09:37:42;;;;;;;59.30;26.88;;;;;;;;;;4962966;28;20058;-50
2023/09/10 09:40:36;;;;;;;49.22;24.25;;;;;;;;;;4965421;28;20716;-59
2023/09/10 09:43:25;;;;;;;47.95;23.92;;;;;;;;;;4966702;28;20059;-60
2023/09/10 09:46:20;;;;;;;42.05;22.42;;;;;;;;;;4967899;28;20058;-59
2023/09/10 09:49:08;;;;;;;44.00;23.05;;;;;;;;;;4965654;28;20047;-59
2023/09/10 09:52:10;;;;;;;43.40;21.38;;;;;;;;;;4945919;28;20063;-60
2023/09/10 09:54:57;;;;;;;36.25;20.42;;;;;;;;;;4944440;28;20088;-46
2023/09/10 09:57:51;;;;;;;37.72;21.85;;;;;;;;;;4946585;28;20070;-48
2023/09/10 10:00:38;;;;;;;35.10;20.10;;;;;;;;;;4944303;28;20066;-48
2023/09/10 10:03:33;;;;;;;39.22;21.38;;;;;;;;;;4936514;28;20098;-59
2023/09/10 10:06:20;;;;;;;38.38;20.73;;;;;;;;;;4944284;28;20051;-60
2023/09/10 10:09:18;;;;;;;31.65;18.15;;;;;;;;;;4943511;28;20047;-60
2023/09/10 10:12:10;;;;;;;30.90;19.00;;;;;;;;;;4943997;28;20059;-60
2023/09/10 10:14:57;;;;;;;39.30;20.73;;;;;;;;;;4940799;28;20134;-59
2023/09/10 10:17:52;;;;;;;38.33;20.67;;;;;;;;;;4961095;28;20059;-61
2023/09/10 10:20:47;;;;;;;43.20;22.13;;;;;;;;;;4961930;28;20054;-60
2023/09/10 10:23:34;;;;;;;46.53;22.88;;;;;;;;;;4964602;28;20062;-60
2023/09/10 10:26:29;;;;;;;35.80;20.10;;;;;;;;;;4963614;28;20054;-60
2023/09/10 10:29:18;;;;;;;35.90;19.50;;;;;;;;;;4966095;28;20066;-61
2023/09/10 10:32:25;;;;;;;34.90;20.05;;;;;;;;;;4963818;28;20046;-60
2023/09/10 10:35:12;;;;;;;38.13;20.02;;;;;;;;;;4968116;28;20062;-61
2023/09/10 10:38:14;;;;;;;32.78;19.77;;;;;;;;;;4965869;28;20054;-60
2023/09/10 10:41:12;;;;;;;35.42;19.38;;;;;;;;;;4963399;28;20061;-50
2023/09/10 10:44:13;;;;;;;34.97;21.00;;;;;;;;;;4958416;28;20067;-50
2023/09/10 10:47:10;;;;;;;33.95;19.65;;;;;;;;;;4965505;28;22440;-49
2023/09/10 10:50:13;;;;;;;34.60;20.45;;;;;;;;;;4959731;28;20129;-49
2023/09/10 10:53:04;;;;;;;40.05;21.52;;;;;;;;;;4960371;28;20054;-58
2023/09/10 10:56:04;;;;;;;37.92;21.42;;;;;;;;;;4961112;28;20137;-49
2023/09/10 10:58:47;;;;;;;39.60;21.55;;;;;;;;;;4964214;28;21075;-50
2023/09/10 11:01:41;;;;;;;45.42;23.52;;;;;;;;;;4950294;28;20054;-49
2023/09/10 11:04:30;;;;;;;39.53;23.55;;;;;;;;;;4956668;28;20064;-50
2023/09/10 11:07:22;;;;;;;42.53;23.25;;;;;;;;;;4961493;28;22475;-49
2023/09/10 11:10:25;;;;;;;36.67;22.02;;;;;;;;;;4957550;28;20047;-63
2023/09/10 11:13:19;;;;;;;36.53;21.20;;;;;;;;;;4958597;28;20463;-58
2023/09/10 11:16:06;;;;;;;33.80;21.65;;;;;;;;;;4960989;28;20058;-58
2023/09/10 11:19:00;;;;;;;38.88;21.35;;;;;;;;;;4965156;28;20296;-59
2023/09/10 11:21:57;;;;;;;45.30;23.95;;;;;;;;;;4954819;28;20552;-59
2023/09/10 11:24:44;;;;;;;37.88;22.98;;;;;;;;;;4964885;28;20055;-59
2023/09/10 11:27:38;;;;;;;39.60;23.80;;;;;;;;;;4962730;28;20105;-61
2023/09/10 11:30:32;;;;;;;44.33;23.73;;;;;;;;;;4960684;28;20055;-52
2023/09/10 11:33:30;;;;;;;46.65;25.10;;;;;;;;;;4961460;28;20059;-48
2023/09/10 11:36:17;;;;;;;38.83;23.92;;;;;;;;;;4959098;28;20054;-49
2023/09/10 11:39:13;;;;;;;36.28;22.00;;;;;;;;;;4960556;28;20106;-48
2023/09/10 11:42:00;;;;;;;35.90;21.75;;;;;;;;;;4960597;28;20399;-50
2023/09/10 11:44:55;;;;;;;38.22;20.58;;;;;;;;;;4961877;28;20047;-62
2023/09/10 11:47:41;;;;;;;29.98;19.77;;;;;;;;;;4952787;28;20054;-57
2023/09/10 11:50:50;;;;;;;30.02;21.10;;;;;;;;;;4938537;28;20111;-57
2023/09/10 11:53:42;;;;;;;33.80;21.00;;;;;;;;;;4945692;28;20377;-57
2023/09/10 11:56:36;;;;;;;28.80;18.58;;;;;;;;;;4960317;28;20440;-57
2023/09/10 11:59:25;;;;;;;31.30;19.00;;;;;;;;;;4955675;28;20059;-57
2023/09/10 12:02:20;;;;;;;26.27;19.65;;;;;;;;;;4955776;28;20479;-57
2023/09/10 12:04:48;;;;;;;32.20;20.08;;;;;;;;;;4954249;28;20064;-49
2023/09/10 12:07:18;;;;;;;28.20;19.73;;;;;;;;;;4958558;28;20476;-45
2023/09/10 12:09:52;;;;;;;27.50;19.02;;;;;;;;;;4957446;28;20055;-49
2023/09/10 12:12:39;;;;;;;24.70;17.48;;;;;;;;;;4958218;28;20078;-46
2023/09/10 12:15:33;;;;;;;25.35;17.38;;;;;;;;;;4960475;28;20090;-49
2023/09/10 12:18:22;;;;;;;21.92;16.35;;;;;;;;;;4956534;28;20156;-49
2023/09/10 12:21:17;;;;;;;21.67;16.50;;;;;;;;;;4955639;28;20058;-48
2023/09/10 12:24:02;;;;;;;28.48;18.88;;;;;;;;;;4956080;28;20058;-49
2023/09/10 12:26:56;;;;;;;33.42;20.27;;;;;;;;;;4959257;28;20061;-62
2023/09/10 12:29:50;;;;;;;29.63;18.90;;;;;;;;;;4958944;28;20070;-63
2023/09/10 12:32:44;;;;;;;29.98;17.50;;;;;;;;;;4958929;28;20122;-62
2023/09/10 12:35:31;;;;;;;28.00;18.02;;;;;;;;;;4955054;28;20074;-63
2023/09/10 12:38:27;;;;;;;28.55;17.90;;;;;;;;;;4957932;28;20086;-63
2023/09/10 12:41:16;;;;;;;30.90;18.30;;;;;;;;;;4960604;28;20062;-61
2023/09/10 12:44:10;;;;;;;27.42;17.00;;;;;;;;;;4960352;28;20059;-57
2023/09/10 12:46:56;;;;;;;27.42;16.80;;;;;;;;;;4958043;28;20499;-57
2023/09/10 12:49:50;;;;;;;30.40;18.60;;;;;;;;;;4961760;28;20070;-57
2023/09/10 12:52:44;;;;;;;33.22;18.20;;;;;;;;;;4969840;28;20058;-55
2023/09/10 12:55:37;;;;;;;32.20;18.77;;;;;;;;;;4976152;28;20060;-56
2023/09/10 12:58:24;;;;;;;30.67;17.25;;;;;;;;;;4977630;28;20058;-60
2023/09/10 13:01:25;;;;;;;34.17;18.23;;;;;;;;;;4983128;28;20470;-58
2023/09/10 13:04:05;;;;;;;32.15;17.15;;;;;;;;;;4976098;28;20100;-63
2023/09/10 13:06:39;;;;;;;33.03;18.15;;;;;;;;;;4977493;28;20054;-63
2023/09/10 13:09:06;;;;;;;31.90;16.02;;;;;;;;;;4978193;28;20589;-63
2023/09/10 13:11:40;;;;;;;29.38;16.08;;;;;;;;;;4980399;28;20049;-63
2023/09/10 13:14:27;;;;;;;29.23;16.55;;;;;;;;;;4975966;28;20085;-63
2023/09/10 13:17:21;;;;;;;33.38;17.73;;;;;;;;;;4982945;28;20703;-55
2023/09/10 13:19:48;;;;;;;;;;;;;;;;;;4982719;28;20050;-63
2023/09/10 13:22:44;;;;;;;30.73;16.15;;;;;;;;;;4979180;28;19926;-57
2023/09/10 13:25:30;;;;;;;30.23;16.00;;;;;;;;;;4982163;28;20506;-56
2023/09/10 13:28:23;;;;;;;26.85;15.50;;;;;;;;;;4980222;28;20054;-58
2023/09/10 13:31:18;;;;;;;27.23;14.23;;;;;;;;;;4979382;28;20050;-54
2023/09/10 13:34:08;;;;;;;24.45;14.18;;;;;;;;;;4977210;28;20065;-57
2023/09/10 13:37:07;;;;;;;20.42;13.18;;;;;;;;;;4983019;28;20097;-58
2023/09/10 13:39:52;;;;;;;23.42;14.13;;;;;;;;;;4977818;28;20403;-60
2023/09/10 13:42:49;;;;;;;18.63;12.07;;;;;;;;;;4980306;28;20084;-60
2023/09/10 13:45:35;;;;;;;17.95;11.18;;;;;;;;;;4979509;28;20097;-60
2023/09/10 13:48:29;;;;;;;18.77;11.15;;;;;;;;;;4963192;28;20066;-60
2023/09/10 13:51:23;;;;;;;20.23;11.30;;;;;;;;;;4974331;28;20066;-60
2023/09/10 13:54:17;;;;;;;21.35;11.50;;;;;;;;;;4966336;28;20066;-56
2023/09/10 13:57:04;;;;;;;19.13;11.10;;;;;;;;;;4967218;28;20114;-56
2023/09/10 13:59:58;;;;;;;21.15;10.75;;;;;;;;;;4968737;28;20137;-57
2023/09/10 14:02:45;;;;;;;20.27;11.18;;;;;;;;;;4964448;28;20077;-58
2023/09/10 14:05:39;;;;;;;19.75;10.55;;;;;;;;;;4955042;28;20507;-57
2023/09/10 14:08:26;;;;;;;24.75;10.20;;;;;;;;;;4961432;28;20055;-57
2023/09/10 14:11:20;;;;;;;23.25;10.35;;;;;;;;;;4959066;28;20420;-57
2023/09/10 14:14:07;;;;;;;19.45;9.95;;;;;;;;;;4962875;28;20065;-61
2023/09/10 14:17:01;;;;;;;16.42;8.93;;;;;;;;;;4963684;28;20070;-51
2023/09/10 14:19:48;;;;;;;18.73;8.73;;;;;;;;;;4964236;28;20430;-52
2023/09/10 14:22:43;;;;;;;21.85;8.88;;;;;;;;;;4954922;28;20255;-50
2023/09/10 14:25:30;;;;;;;17.48;8.63;;;;;;;;;;4949925;28;20062;-49
2023/09/10 14:28:24;;;;;;;17.80;8.80;;;;;;;;;;4958173;28;20051;-49
2023/09/10 14:31:11;;;;;;;19.90;9.13;;;;;;;;;;4962182;28;20630;-57
2023/09/10 14:34:05;;;;;;;19.38;8.82;;;;;;;;;;4962660;28;20052;-58
2023/09/10 14:36:52;;;;;;;20.50;8.95;;;;;;;;;;4951382;28;20150;-57
2023/09/10 14:39:46;;;;;;;18.02;8.70;;;;;;;;;;4958049;28;20058;-57
2023/09/10 14:42:35;;;;;;;23.48;8.45;;;;;;;;;;4960981;28;20063;-57
2023/09/10 14:45:27;;;;;;;23.17;8.30;;;;;;;;;;4963163;28;20054;-57
2023/09/10 14:48:14;;;;;;;23.17;8.57;;;;;;;;;;4964654;28;20065;-58
2023/09/10 14:51:21;;;;;;;19.95;8.68;;;;;;;;;;4965859;28;20086;-63
2023/09/10 14:54:15;;;;;;;19.27;8.18;;;;;;;;;;4959943;28;20081;-49
2023/09/10 14:57:09;;;;;;;15.65;8.35;;;;;;;;;;4963500;28;20105;-46
2023/09/10 15:00:03;;;;;;;20.63;9.25;;;;;;;;;;4961639;28;20589;-47
2023/09/10 15:02:51;;;;;;;17.10;9.00;;;;;;;;;;4961572;28;20078;-46
2023/09/10 15:05:44;;;;;;;21.65;9.68;;;;;;;;;;4962191;28;20147;-50
2023/09/10 15:08:31;;;;;;;17.75;8.38;;;;;;;;;;4965672;28;20106;-61
2023/09/10 15:11:25;;;;;;;17.75;8.82;;;;;;;;;;4962569;28;20745;-57
2023/09/10 15:14:12;;;;;;;17.65;8.40;;;;;;;;;;4963538;28;20463;-56
2023/09/10 15:17:06;;;;;;;25.55;8.85;;;;;;;;;;4963070;28;20058;-58
2023/09/10 15:19:53;;;;;;;21.08;9.02;;;;;;;;;;4961437;28;20054;-58
2023/09/10 15:22:47;;;;;;;24.10;9.65;;;;;;;;;;4962495;28;20082;-58
2023/09/10 15:25:34;;;;;;;23.00;9.38;;;;;;;;;;4963054;28;20797;-50
2023/09/10 15:28:29;;;;;;;17.48;9.43;;;;;;;;;;4960001;28;20059;-61
2023/09/10 15:31:16;;;;;;;18.80;9.48;;;;;;;;;;4957083;28;20047;-59
2023/09/10 15:34:09;;;;;;;22.75;9.32;;;;;;;;;;4959523;28;20597;-59
2023/09/10 15:36:56;;;;;;;19.70;9.35;;;;;;;;;;4960921;28;20429;-60
2023/09/10 15:39:50;;;;;;;23.45;9.98;;;;;;;;;;4958661;28;20050;-59
2023/09/10 15:42:37;;;;;;;24.13;10.23;;;;;;;;;;4958094;28;20105;-59
2023/09/10 15:45:31;;;;;;;25.27;9.30;;;;;;;;;;4958850;28;20149;-60
2023/09/10 15:48:19;;;;;;;17.92;8.95;;;;;;;;;;4959369;28;20597;-47
2023/09/10 15:51:25;;;;;;;22.85;10.00;;;;;;;;;;4961354;28;20051;-50
2023/09/10 15:54:13;;;;;;;22.00;8.98;;;;;;;;;;4959889;28;20583;-47
2023/09/10 15:57:06;;;;;;;20.27;10.00;;;;;;;;;;4962076;28;20073;-48
2023/09/10 15:59:33;;;;;;;21.95;9.57;;;;;;;;;;4961320;28;20050;-48
2023/09/10 16:02:27;;;;;;;23.40;10.05;;;;;;;;;;4958181;28;20499;-53
2023/09/10 16:05:15;;;;;;;21.95;9.52;;;;;;;;;;4961560;28;20070;-57
2023/09/10 16:08:09;;;;;;;21.52;8.98;;;;;;;;;;4958796;28;20530;-52
2023/09/10 16:10:57;;;;;;;16.90;9.13;;;;;;;;;;4956400;28;20085;-48
2023/09/10 16:13:51;;;;;;;19.70;9.20;;;;;;;;;;4962018;28;20051;-50
2023/09/10 16:16:38;;;;;;;19.67;9.65;;;;;;;;;;4960915;28;20058;-53
2023/09/10 16:19:32;;;;;;;22.17;8.60;;;;;;;;;;4960089;28;20055;-50
2023/09/10 16:22:21;;;;;;;17.98;9.27;;;;;;;;;;4958635;28;20086;-59
2023/09/10 16:25:14;;;;;;;23.33;8.57;;;;;;;;;;4959236;28;20084;-64
2023/09/10 16:28:03;;;;;;;25.95;10.27;;;;;;;;;;4958599;28;20062;-63
2023/09/10 16:30:55;;;;;;;19.33;8.80;;;;;;;;;;4950766;28;20047;-64
2023/09/10 16:33:42;;;;;;;27.77;9.10;;;;;;;;;;4957784;28;20467;-63